Time;durP1;ratioP1;P1;durP2;ratioP2;P2;SDS_P1;SDS_P2;PMS_P1;PMS_P2;Temp;Humidity;BMP_temperature;BMP_pressure;BME280_temperature;BME280_humidity;BME280_pressure;Samples;Min_cycle;Max_cycle;Signal;HPM_P1;HPM_P2
2023/09/27 00:01:00;;;;;;;2.30;1.57;;;;;;;20.37;84.72;99729.41;5093014;28;20719;-69
2023/09/27 00:03:27;;;;;;;2.20;2.00;;;;;;;20.34;85.08;99714.00;5091875;28;20206;-69
2023/09/27 00:05:54;;;;;;;2.70;1.57;;;;;;;20.31;85.22;99725.44;5092872;28;20214;-69
2023/09/27 00:08:21;;;;;;;1.80;1.70;;;;;;;20.31;85.20;99724.59;5092132;28;20308;-69
2023/09/27 00:10:47;;;;;;;3.57;1.00;;;;;;;20.27;85.05;99717.94;5092898;28;20213;-69
2023/09/27 00:13:14;;;;;;;1.80;1.70;;;;;;;20.23;85.42;99717.25;5092655;28;20618;-69
2023/09/27 00:15:43;;;;;;;1.23;1.23;;;;;;;20.20;85.04;99721.81;5091846;28;20199;-69
2023/09/27 00:18:09;;;;;;;1.53;1.53;;;;;;;20.19;85.34;99713.19;5092549;28;20366;-69
2023/09/27 00:20:36;;;;;;;1.30;1.30;;;;;;;20.15;85.38;99716.94;5092867;28;20202;-69
2023/09/27 00:23:05;;;;;;;1.90;1.27;;;;;;;20.14;85.50;99712.66;5092506;28;20629;-69
2023/09/27 00:25:32;;;;;;;4.30;1.77;;;;;;;20.11;85.97;99706.78;5092786;28;20689;-68
2023/09/27 00:27:59;;;;;;;1.33;1.23;;;;;;;20.03;86.32;99707.31;5092442;28;20200;-69
2023/09/27 00:30:25;;;;;;;1.63;1.53;;;;;;;20.00;87.09;99709.28;5092766;28;20222;-68
2023/09/27 00:32:54;;;;;;;1.40;1.37;;;;;;;19.96;87.15;99707.78;5092087;28;20249;-69
2023/09/27 00:35:22;;;;;;;3.33;1.80;;;;;;;19.90;87.26;99696.81;5092885;28;20734;-69
2023/09/27 00:37:49;;;;;;;5.53;1.40;;;;;;;19.88;87.29;99696.09;5091403;28;20211;-69
2023/09/27 00:40:18;;;;;;;1.10;1.00;;;;;;;19.84;87.54;99689.41;5092784;28;20664;-69
2023/09/27 00:42:47;;;;;;;1.30;1.30;;;;;;;19.84;87.56;99694.59;5092392;28;20287;-68
2023/09/27 00:45:14;;;;;;;1.83;1.73;;;;;;;19.82;87.34;99693.88;5092663;28;20260;-69
2023/09/27 00:47:42;;;;;;;1.53;1.40;;;;;;;19.75;87.39;99691.75;5092033;28;20204;-69
2023/09/27 00:50:10;;;;;;;1.47;1.37;;;;;;;19.71;88.05;99692.91;5092645;28;20198;-69
2023/09/27 00:52:40;;;;;;;1.90;1.40;;;;;;;19.68;87.83;99690.47;5092017;28;20213;-68
2023/09/27 00:55:08;;;;;;;3.90;1.47;;;;;;;19.63;88.48;99690.78;5092425;28;20680;-69
2023/09/27 00:57:35;;;;;;;1.67;1.57;;;;;;;19.61;88.15;99692.63;5091562;28;20206;-69
2023/09/27 01:00:03;;;;;;;1.60;1.50;;;;;;;19.52;88.04;99693.19;5091962;28;20250;-69
2023/09/27 01:02:30;;;;;;;3.73;2.17;;;;;;;19.43;88.59;99698.97;5091178;28;20672;-69
2023/09/27 01:04:57;;;;;;;1.63;1.50;;;;;;;19.37;89.32;99699.31;5089932;28;20235;-69
2023/09/27 01:07:25;;;;;;;1.60;1.50;;;;;;;19.31;89.45;99686.69;5091374;28;20205;-69
2023/09/27 01:09:52;;;;;;;1.30;1.30;;;;;;;19.31;89.96;99690.13;5091919;28;20681;-69
2023/09/27 01:12:19;;;;;;;2.03;1.50;;;;;;;19.32;89.78;99690.97;5085603;28;20215;-69
2023/09/27 01:14:46;;;;;;;1.10;1.10;;;;;;;19.25;89.73;99680.13;5071001;28;20199;-68
2023/09/27 01:17:13;;;;;;;1.97;1.87;;;;;;;19.16;89.77;99664.25;5086917;28;20216;-69
2023/09/27 01:19:40;;;;;;;2.30;2.00;;;;;;;19.27;90.11;99683.44;5092015;28;20725;-69
2023/09/27 01:22:07;;;;;;;1.60;1.50;;;;;;;19.27;90.17;99693.84;5086037;28;20200;-69
2023/09/27 01:24:37;;;;;;;4.23;1.90;;;;;;;19.25;90.88;99700.06;5071438;28;20201;-69
2023/09/27 01:27:06;;;;;;;3.40;1.90;;;;;;;19.25;91.13;99694.88;5070654;28;20286;-69
2023/09/27 01:29:33;;;;;;;2.50;2.30;;;;;;;19.24;91.11;99693.19;5070625;28;20203;-69
2023/09/27 01:32:00;;;;;;;2.03;1.93;;;;;;;19.25;90.88;99689.69;5071082;28;20307;-69
2023/09/27 01:34:27;;;;;;;2.30;1.87;;;;;;;19.22;91.15;99695.06;5071356;28;20205;-69
2023/09/27 01:36:55;;;;;;;4.70;2.27;;;;;;;19.19;91.25;99693.47;5071038;28;20208;-69
2023/09/27 01:39:24;;;;;;;3.03;2.73;;;;;;;19.10;91.37;99680.19;5080343;28;20197;-69
2023/09/27 01:41:52;;;;;;;2.37;2.27;;;;;;;19.13;91.42;99695.59;5090024;28;20664;-69
2023/09/27 01:44:19;;;;;;;2.53;1.60;;;;;;;19.04;91.58;99685.75;5075501;28;20697;-69
2023/09/27 01:46:46;;;;;;;1.33;1.33;;;;;;;19.03;91.45;99689.31;5091195;28;20293;-69
2023/09/27 01:49:12;;;;;;;1.80;1.70;;;;;;;19.00;91.05;99687.69;5079444;28;20205;-68
2023/09/27 01:51:39;;;;;;;2.60;2.40;;;;;;;18.93;91.29;99690.78;5085549;28;20227;-69
2023/09/27 01:54:06;;;;;;;1.80;1.70;;;;;;;18.84;91.48;99679.16;5071097;28;20270;-68
2023/09/27 01:56:33;;;;;;;1.90;1.43;;;;;;;18.85;91.66;99686.88;5070861;28;20605;-69
2023/09/27 01:59:01;;;;;;;7.77;1.70;;;;;;;18.79;92.29;99687.25;5079567;28;20677;-69
2023/09/27 02:01:28;;;;;;;1.80;1.70;;;;;;;18.77;92.71;99689.06;5073336;28;20584;-69
2023/09/27 02:03:55;;;;;;;2.00;1.90;;;;;;;18.73;93.26;99692.78;5070519;28;20213;-69
2023/09/27 02:06:23;;;;;;;3.37;2.17;;;;;;;18.72;93.29;99682.47;5070614;28;20201;-69
2023/09/27 02:08:49;;;;;;;2.23;2.10;;;;;;;18.71;93.49;99684.25;5072985;28;20677;-69
2023/09/27 02:11:16;;;;;;;2.97;2.33;;;;;;;18.73;93.54;99690.19;5070593;28;20600;-69
2023/09/27 02:13:43;;;;;;;2.30;2.10;;;;;;;18.72;93.87;99691.13;5070583;28;20580;-69
2023/09/27 02:16:11;;;;;;;1.43;1.10;;;;;;;18.72;93.69;99685.09;5070654;28;20630;-69
2023/09/27 02:18:39;;;;;;;2.30;1.47;;;;;;;18.75;93.43;99685.75;5070658;28;20201;-69
2023/09/27 02:21:06;;;;;;;2.50;1.43;;;;;;;18.76;93.50;99682.22;5070726;28;20209;-69
2023/09/27 02:23:32;;;;;;;2.43;2.23;;;;;;;18.79;93.30;99687.25;5069905;28;20284;-69
2023/09/27 02:26:00;;;;;;;1.93;1.83;;;;;;;18.81;93.76;99679.34;5070589;28;20196;-69
2023/09/27 02:28:26;;;;;;;1.60;1.60;;;;;;;18.59;93.56;99653.81;5070258;28;20199;-69
2023/09/27 02:30:53;;;;;;;2.83;2.37;;;;;;;18.78;93.45;99675.16;5070462;28;20571;-69
2023/09/27 02:33:22;;;;;;;1.80;1.70;;;;;;;18.78;93.12;99676.94;5069896;28;20207;-69
2023/09/27 02:35:49;;;;;;;2.07;1.97;;;;;;;18.78;93.54;99674.31;5070298;28;20206;-69
2023/09/27 02:38:15;;;;;;;2.97;2.60;;;;;;;18.77;93.77;99678.69;5070038;28;20258;-69
2023/09/27 02:40:43;;;;;;;1.97;1.87;;;;;;;18.79;94.35;99678.59;5069970;28;20249;-69
2023/09/27 02:43:09;;;;;;;2.23;2.13;;;;;;;18.78;94.57;99680.34;5069059;28;20576;-69
2023/09/27 02:45:36;;;;;;;2.33;2.23;;;;;;;18.75;94.86;99675.34;5069736;28;20204;-69
2023/09/27 02:48:04;;;;;;;2.27;1.87;;;;;;;18.77;94.99;99678.69;5070552;28;20700;-69
2023/09/27 02:50:32;;;;;;;1.93;1.70;;;;;;;18.76;95.30;99681.38;5070205;28;20207;-69
2023/09/27 02:52:59;;;;;;;1.77;1.67;;;;;;;18.75;95.15;99679.69;5069400;28;20784;-69
2023/09/27 02:55:26;;;;;;;2.10;1.63;;;;;;;18.73;94.89;99682.41;5070235;28;20200;-69
2023/09/27 02:57:53;;;;;;;2.57;2.13;;;;;;;18.65;94.61;99674.22;5069883;28;20229;-69
2023/09/27 03:00:20;;;;;;;2.20;2.00;;;;;;;18.73;94.43;99687.59;5070379;28;20215;-69
2023/09/27 03:02:47;;;;;;;2.10;2.00;;;;;;;18.69;94.39;99696.50;5068741;28;20668;-69
2023/09/27 03:05:15;;;;;;;2.07;1.87;;;;;;;18.67;94.84;99692.31;5068266;28;20635;-69
2023/09/27 03:07:44;;;;;;;1.90;1.77;;;;;;;18.65;94.83;99689.78;5074521;28;20694;-68
2023/09/27 03:10:11;;;;;;;3.77;1.90;;;;;;;18.62;94.69;99689.97;5090663;28;20658;-69
2023/09/27 03:12:39;;;;;;;2.20;2.10;;;;;;;18.60;94.84;99697.03;5089119;28;20212;-68
2023/09/27 03:15:10;;;;;;;1.30;1.30;;;;;;;18.54;94.76;99687.00;5089827;28;20650;-69
2023/09/27 03:17:38;;;;;;;2.37;2.27;;;;;;;18.50;95.00;99690.69;5090135;28;20283;-69
2023/09/27 03:20:13;;;;;;;6.10;1.93;;;;;;;18.47;95.25;99701.22;5090478;28;20594;-69
2023/09/27 03:22:40;;;;;;;1.63;1.53;;;;;;;18.44;95.62;99695.38;5089659;28;20197;-69
2023/09/27 03:25:09;;;;;;;3.03;2.03;;;;;;;18.41;95.87;99696.41;5089836;28;20203;-69
2023/09/27 03:27:36;;;;;;;3.10;1.63;;;;;;;18.38;96.28;99696.56;5089455;28;20218;-69
2023/09/27 03:30:04;;;;;;;3.57;1.90;;;;;;;18.38;96.54;99699.97;5090235;28;20567;-69
2023/09/27 03:32:31;;;;;;;2.37;2.17;;;;;;;18.34;96.45;99700.25;5089919;28;20220;-69
2023/09/27 03:34:58;;;;;;;2.80;1.57;;;;;;;18.31;96.45;99705.63;5089802;28;20203;-69
2023/09/27 03:37:25;;;;;;;2.87;1.97;;;;;;;18.26;96.52;99707.63;5089233;28;20203;-69
2023/09/27 03:39:52;;;;;;;4.03;2.03;;;;;;;18.24;96.80;99709.50;5089760;28;20257;-68
2023/09/27 03:42:21;;;;;;;1.97;1.87;;;;;;;18.18;97.00;99704.66;5090047;28;20245;-69
2023/09/27 03:44:48;;;;;;;1.80;1.70;;;;;;;18.10;97.13;99699.03;5088519;28;20243;-69
2023/09/27 03:47:18;;;;;;;2.47;1.73;;;;;;;18.12;97.23;99705.00;5088573;28;20206;-69
2023/09/27 03:49:45;;;;;;;1.87;1.80;;;;;;;18.12;97.32;99710.19;5089220;28;20199;-69
2023/09/27 03:52:13;;;;;;;2.63;2.43;;;;;;;18.11;97.23;99708.50;5090071;28;20753;-69
2023/09/27 03:54:40;;;;;;;1.70;1.53;;;;;;;18.10;97.21;99710.25;5092625;28;20200;-69
2023/09/27 03:57:07;;;;;;;1.70;1.60;;;;;;;18.10;97.37;99706.81;5091101;28;20207;-69
2023/09/27 03:59:35;;;;;;;1.67;1.57;;;;;;;18.09;97.59;99715.53;5089956;28;20207;-69
2023/09/27 04:02:01;;;;;;;1.63;1.53;;;;;;;18.06;97.98;99705.34;5091043;28;20188;-68
2023/09/27 04:04:28;;;;;;;6.77;1.30;;;;;;;18.06;98.09;99715.72;5091985;28;20207;-69
2023/09/27 04:06:56;;;;;;;1.30;1.30;;;;;;;18.04;98.15;99710.59;5092500;28;20197;-69
2023/09/27 04:09:23;;;;;;;3.17;2.80;;;;;;;18.02;98.12;99714.22;5079245;28;20227;-69
2023/09/27 04:11:49;;;;;;;4.30;2.23;;;;;;;18.01;98.34;99712.53;5073076;28;20323;-69
2023/09/27 04:14:16;;;;;;;2.23;2.13;;;;;;;18.00;98.17;99722.06;5072544;28;20200;-69
2023/09/27 04:16:44;;;;;;;5.43;2.60;;;;;;;18.01;98.22;99721.16;5072889;28;20642;-69
2023/09/27 04:19:10;;;;;;;2.00;1.90;;;;;;;17.99;98.00;99724.75;5082934;28;20196;-69
2023/09/27 04:21:37;;;;;;;2.03;1.93;;;;;;;17.98;98.00;99726.50;5087066;28;20575;-69
2023/09/27 04:24:04;;;;;;;2.40;2.30;;;;;;;17.96;98.05;99725.78;5071981;28;20623;-69
2023/09/27 04:26:31;;;;;;;7.67;2.40;;;;;;;17.95;98.01;99733.63;5072155;28;20275;-69
2023/09/27 04:28:59;;;;;;;2.70;1.93;;;;;;;17.92;98.24;99729.44;5072736;28;20207;-69
2023/09/27 04:31:26;;;;;;;2.07;1.97;;;;;;;17.79;98.50;99713.72;5072582;28;20196;-69
2023/09/27 04:33:55;;;;;;;5.73;2.57;;;;;;;17.89;98.94;99728.78;5071839;28;20239;-69
2023/09/27 04:36:21;;;;;;;2.00;1.90;;;;;;;17.88;99.04;99738.31;5072436;28;20196;-68
2023/09/27 04:38:49;;;;;;;1.93;1.77;;;;;;;17.89;99.43;99733.97;5076319;28;20191;-69
2023/09/27 04:41:17;;;;;;;2.60;2.40;;;;;;;17.84;99.75;99742.81;5092834;28;20314;-69
2023/09/27 04:43:44;;;;;;;2.00;1.90;;;;;;;17.82;100.00;99738.66;5084817;28;20193;-69
2023/09/27 04:46:12;;;;;;;1.77;1.67;;;;;;;17.82;100.00;99734.31;5072165;28;20209;-69
2023/09/27 04:48:39;;;;;;;4.93;1.97;;;;;;;17.85;100.00;99738.47;5072239;28;20665;-68
2023/09/27 04:51:07;;;;;;;3.77;2.27;;;;;;;17.90;100.00;99740.84;5072349;28;20200;-69
2023/09/27 04:53:37;;;;;;;4.73;2.03;;;;;;;17.91;100.00;99743.31;5067186;28;20204;-68
2023/09/27 04:56:05;;;;;;;3.37;2.00;;;;;;;17.93;100.00;99745.84;5071081;28;20634;-69
2023/09/27 04:58:32;;;;;;;8.07;2.40;;;;;;;17.95;100.00;99744.00;5070427;28;20664;-69
2023/09/27 05:00:58;;;;;;;7.57;2.93;;;;;;;18.00;100.00;99747.16;5067949;28;20258;-69
2023/09/27 05:03:26;;;;;;;2.03;1.73;;;;;;;18.07;100.00;99748.50;5078289;28;20312;-69
2023/09/27 05:05:52;;;;;;;2.73;2.33;;;;;;;18.15;100.00;99751.53;5071557;28;20600;-69
2023/09/27 05:08:20;;;;;;;8.30;1.80;;;;;;;18.23;100.00;99751.91;5078681;28;20228;-69
2023/09/27 05:10:47;;;;;;;1.90;1.80;;;;;;;18.32;100.00;99754.84;5089608;28;20269;-69
2023/09/27 05:13:14;;;;;;;2.30;2.10;;;;;;;18.43;100.00;99746.47;5088532;28;20253;-69
2023/09/27 05:15:41;;;;;;;4.97;2.03;;;;;;;18.44;100.00;99740.34;5089096;28;20222;-69
2023/09/27 05:18:08;;;;;;;2.50;2.40;;;;;;;18.62;100.00;99752.31;5089269;28;20198;-69
2023/09/27 05:20:36;;;;;;;2.50;2.10;;;;;;;18.64;100.00;99755.63;5087224;28;20560;-70
2023/09/27 05:23:03;;;;;;;1.73;1.73;;;;;;;18.71;99.77;99762.16;5085323;28;20226;-69
2023/09/27 05:25:31;;;;;;;7.60;2.53;;;;;;;18.75;99.35;99757.63;5086588;28;20676;-68
2023/09/27 05:27:58;;;;;;;6.13;2.70;;;;;;;18.79;99.67;99753.94;5086415;28;20207;-68
2023/09/27 05:30:25;;;;;;;2.47;2.37;;;;;;;18.81;99.91;99757.25;5088527;28;20798;-68
2023/09/27 05:32:53;;;;;;;2.00;1.90;;;;;;;18.79;100.00;99749.56;5087625;28;20204;-68
2023/09/27 05:35:20;;;;;;;4.63;2.30;;;;;;;18.85;100.00;99753.56;5087631;28;20682;-68
2023/09/27 05:37:47;;;;;;;4.57;2.20;;;;;;;18.87;99.85;99752.53;5086391;28;20195;-68
2023/09/27 05:40:13;;;;;;;3.70;2.23;;;;;;;18.91;100.00;99757.56;5087748;28;20254;-68
2023/09/27 05:42:42;;;;;;;3.33;1.67;;;;;;;18.89;99.64;99755.06;5089456;28;20220;-68
2023/09/27 05:45:11;;;;;;;7.43;2.70;;;;;;;18.98;99.95;99761.47;5088877;28;20578;-68
2023/09/27 05:47:39;;;;;;;2.43;2.27;;;;;;;18.95;100.00;99756.47;5088960;28;20747;-68
2023/09/27 05:50:08;;;;;;;2.37;2.17;;;;;;;19.07;100.00;99773.94;5088042;28;20197;-68
2023/09/27 05:52:35;;;;;;;3.57;1.70;;;;;;;19.10;99.30;99773.75;5090082;28;20191;-68
2023/09/27 05:55:05;;;;;;;1.90;1.80;;;;;;;19.17;100.00;99775.06;5090212;28;20208;-68
2023/09/27 05:57:32;;;;;;;1.90;1.80;;;;;;;19.30;100.00;99781.19;5089009;28;20211;-68
2023/09/27 06:00:00;;;;;;;2.00;1.90;;;;;;;19.48;99.50;99782.75;5086865;28;20199;-68
2023/09/27 06:02:30;;;;;;;2.37;2.27;;;;;;;19.61;97.68;99788.03;5087504;28;20225;-68
2023/09/27 06:04:59;;;;;;;1.83;1.77;;;;;;;19.67;95.21;99796.31;5089036;28;20207;-69
2023/09/27 06:07:26;;;;;;;2.67;2.13;;;;;;;19.75;96.04;99791.44;5088515;28;20222;-66
2023/09/27 06:09:53;;;;;;;3.53;1.93;;;;;;;19.88;94.55;99788.94;5070649;28;20217;-67
2023/09/27 06:12:19;;;;;;;2.33;2.10;;;;;;;20.05;94.17;99798.28;5072284;28;20206;-67
2023/09/27 06:14:46;;;;;;;1.53;1.53;;;;;;;20.23;92.98;99789.31;5070975;28;20663;-67
2023/09/27 06:17:17;;;;;;;2.37;2.27;;;;;;;20.41;90.49;99790.78;5070036;28;20702;-68
2023/09/27 06:19:44;;;;;;;2.20;1.93;;;;;;;20.62;89.96;99799.81;5072213;28;20575;-69
2023/09/27 06:22:13;;;;;;;2.23;2.13;;;;;;;20.78;88.36;99797.88;5067744;28;20206;-71
2023/09/27 06:24:40;;;;;;;1.73;1.63;;;;;;;20.94;87.56;99798.53;5070302;28;20199;-71
2023/09/27 06:27:07;;;;;;;1.50;1.40;;;;;;;20.99;85.65;99790.41;5071244;28;20222;-70
2023/09/27 06:29:34;;;;;;;1.73;1.73;;;;;;;21.27;86.26;99799.84;5077249;28;20619;-71
2023/09/27 06:32:01;;;;;;;1.77;1.67;;;;;;;21.47;85.01;99801.94;5071162;28;20330;-71
2023/09/27 06:34:29;;;;;;;4.63;1.87;;;;;;;21.65;84.80;99803.28;5068067;28;20207;-68
2023/09/27 06:36:56;;;;;;;9.60;2.20;;;;;;;21.77;85.38;99797.22;5071220;28;20660;-68
2023/09/27 06:39:24;;;;;;;1.97;1.70;;;;;;;21.87;83.97;99806.06;5073954;28;20207;-67
2023/09/27 06:41:52;;;;;;;2.50;1.70;;;;;;;22.05;86.04;99797.91;5065382;28;20199;-68
2023/09/27 06:44:19;;;;;;;1.50;1.40;;;;;;;22.17;83.57;99794.41;5065970;28;20219;-68
2023/09/27 06:46:47;;;;;;;1.10;1.10;;;;;;;22.23;82.72;99794.00;5072272;28;20284;-71
2023/09/27 06:49:14;;;;;;;1.60;1.50;;;;;;;22.29;81.89;99799.63;5075815;28;20202;-71
2023/09/27 06:51:43;;;;;;;2.33;2.10;;;;;;;22.40;81.10;99801.44;5071410;28;20277;-70
2023/09/27 06:54:10;;;;;;;1.03;1.00;;;;;;;22.49;80.31;99798.16;5066861;28;20349;-70
2023/09/27 06:56:37;;;;;;;1.20;1.20;;;;;;;22.64;81.17;99810.13;5069099;28;20208;-71
2023/09/27 06:59:03;;;;;;;2.03;1.57;;;;;;;22.77;80.15;99803.09;5066905;28;20200;-70
2023/09/27 07:01:30;;;;;;;1.47;1.47;;;;;;;22.87;80.02;99798.84;5066994;28;20222;-70
2023/09/27 07:03:57;;;;;;;2.07;1.57;;;;;;;22.97;79.68;99801.59;5068945;28;20575;-67
2023/09/27 07:06:24;;;;;;;2.80;1.33;;;;;;;23.12;80.64;99803.06;5071294;28;20663;-67
2023/09/27 07:08:57;;;;;;;0.97;0.97;;;;;;;23.29;79.25;99814.88;5077817;28;20231;-68
2023/09/27 07:11:24;;;;;;;3.60;1.20;;;;;;;23.36;76.62;99806.41;5072435;28;20213;-69
2023/09/27 07:13:51;;;;;;;1.17;1.07;;;;;;;23.46;77.58;99806.59;5071474;28;20687;-69
2023/09/27 07:16:26;;;;;;;0.83;0.83;;;;;;;23.60;76.83;99813.38;5077390;28;20270;-69
2023/09/27 07:18:53;;;;;;;1.30;1.23;;;;;;;23.73;75.83;99812.31;5069627;28;20203;-69
2023/09/27 07:21:24;;;;;;;1.30;1.30;;;;;;;23.85;75.60;99813.97;5079669;28;20208;-71
2023/09/27 07:23:53;;;;;;;1.57;1.47;;;;;;;24.00;75.40;99810.16;5070040;28;20671;-67
2023/09/27 07:26:20;;;;;;;11.70;1.53;;;;;;;24.18;75.24;99814.91;5080455;28;20339;-70
2023/09/27 07:28:47;;;;;;;1.40;1.20;;;;;;;24.33;75.43;99814.50;5072192;28;20203;-70
2023/09/27 07:31:15;;;;;;;1.57;1.47;;;;;;;24.49;75.12;99809.69;5073279;28;20629;-70
2023/09/27 07:33:42;;;;;;;1.73;1.63;;;;;;;24.68;72.82;99819.56;5071014;28;20195;-70
2023/09/27 07:36:09;;;;;;;7.37;1.50;;;;;;;24.88;72.02;99810.88;5077338;28;20204;-70
2023/09/27 07:38:37;;;;;;;1.90;0.90;;;;;;;25.14;70.59;99811.34;5078095;28;20211;-70
2023/09/27 07:41:05;;;;;;;1.43;1.33;;;;;;;25.29;70.79;99809.25;5081643;28;20200;-69
2023/09/27 07:43:32;;;;;;;1.60;1.23;;;;;;;25.39;68.60;99810.97;5074627;28;20259;-69
2023/09/27 07:46:01;;;;;;;1.33;1.30;;;;;;;25.48;68.65;99811.97;5081586;28;20617;-70
2023/09/27 07:48:31;;;;;;;1.23;1.23;;;;;;;25.52;68.08;99810.78;5080078;28;20300;-70
2023/09/27 07:50:58;;;;;;;1.43;1.33;;;;;;;25.51;68.28;99809.09;5079775;28;20211;-69
2023/09/27 07:53:25;;;;;;;1.50;0.97;;;;;;;25.50;69.31;99810.06;5073701;28;20278;-70
2023/09/27 07:55:53;;;;;;;1.40;1.07;;;;;;;25.52;67.23;99808.16;5074885;28;20586;-70
2023/09/27 07:58:22;;;;;;;1.30;1.27;;;;;;;25.45;67.23;99814.84;5074733;28;20268;-70
2023/09/27 08:00:49;;;;;;;1.53;1.10;;;;;;;25.34;68.44;99813.13;5079011;28;20575;-70
2023/09/27 08:03:18;;;;;;;1.20;1.10;;;;;;;25.31;68.34;99813.38;5072638;28;20687;-69
2023/09/27 08:05:45;;;;;;;1.43;1.33;;;;;;;25.31;68.67;99810.75;5073066;28;20748;-69
2023/09/27 08:08:13;;;;;;;3.10;1.10;;;;;;;25.39;69.56;99810.13;5069119;28;20662;-69
2023/09/27 08:10:43;;;;;;;1.27;1.27;;;;;;;25.48;70.40;99814.59;5070402;28;20287;-69
2023/09/27 08:13:14;;;;;;;1.07;0.90;;;;;;;25.58;65.75;99805.00;5070850;28;20574;-68
2023/09/27 08:15:43;;;;;;;1.47;1.37;;;;;;;25.59;65.21;99807.47;5069878;28;20196;-68
2023/09/27 08:18:10;;;;;;;0.97;0.97;;;;;;;25.61;67.47;99809.16;5071380;28;20211;-67
2023/09/27 08:20:37;;;;;;;1.30;1.30;;;;;;;25.69;67.93;99810.16;5071225;28;20200;-67
2023/09/27 08:23:04;;;;;;;1.60;0.83;;;;;;;25.75;65.21;99820.13;5071735;28;20227;-67
2023/09/27 08:25:31;;;;;;;2.30;1.23;;;;;;;25.81;65.41;99811.75;5071313;28;20204;-69
2023/09/27 08:27:58;;;;;;;1.33;1.20;;;;;;;25.89;64.16;99829.44;5072112;28;20270;-69
2023/09/27 08:30:25;;;;;;;1.07;1.07;;;;;;;25.85;63.87;99818.38;5071431;28;20685;-70
2023/09/27 08:32:53;;;;;;;1.60;1.00;;;;;;;25.75;62.72;99819.31;5071242;28;20656;-67
2023/09/27 08:35:20;;;;;;;2.07;1.10;;;;;;;25.77;62.53;99823.47;5071053;28;20894;-67
2023/09/27 08:37:47;;;;;;;0.90;0.90;;;;;;;25.74;63.44;99821.09;5071124;28;20211;-68
2023/09/27 08:40:15;;;;;;;1.10;1.10;;;;;;;25.73;61.51;99818.59;5072157;28;20296;-68
2023/09/27 08:42:43;;;;;;;1.30;1.20;;;;;;;25.75;62.81;99817.50;5074148;28;20258;-67
2023/09/27 08:45:13;;;;;;;1.00;1.00;;;;;;;25.82;62.98;99808.13;5071686;28;20705;-67
2023/09/27 08:47:41;;;;;;;1.57;1.57;;;;;;;25.92;62.38;99814.25;5069501;28;20227;-67
2023/09/27 08:50:13;;;;;;;1.10;1.00;;;;;;;25.97;62.04;99812.06;5071683;28;20220;-67
2023/09/27 08:52:45;;;;;;;1.10;1.10;;;;;;;26.02;61.01;99809.84;5070608;28;20208;-67
2023/09/27 08:55:12;;;;;;;1.07;1.07;;;;;;;26.02;62.28;99804.59;5066984;28;20207;-67
2023/09/27 08:57:45;;;;;;;1.03;1.03;;;;;;;26.09;63.10;99799.63;5070035;28;20295;-67
2023/09/27 09:00:19;;;;;;;0.90;0.90;;;;;;;26.06;62.03;99800.75;5069086;28;20290;-67
2023/09/27 09:02:49;;;;;;;1.10;1.10;;;;;;;26.01;61.05;99807.38;5067103;28;21048;-67
2023/09/27 09:05:19;;;;;;;0.90;0.90;;;;;;;26.07;61.06;99798.97;5069053;28;20247;-67
2023/09/27 09:07:46;;;;;;;0.90;0.90;;;;;;;26.17;61.78;99796.38;5066450;28;20285;-67
2023/09/27 09:10:14;;;;;;;4.90;1.27;;;;;;;26.29;61.93;99795.28;5067092;28;20209;-67
2023/09/27 09:12:41;;;;;;;1.70;0.90;;;;;;;26.29;61.38;99800.53;5070969;28;20625;-67
2023/09/27 09:15:14;;;;;;;1.00;0.90;;;;;;;26.31;59.44;99798.59;5068351;28;20203;-67
2023/09/27 09:17:42;;;;;;;1.47;1.23;;;;;;;26.35;60.02;99800.84;5068868;28;20269;-67
2023/09/27 09:20:21;;;;;;;1.20;1.10;;;;;;;26.38;61.96;99804.97;5067768;28;20215;-67
2023/09/27 09:22:50;;;;;;;0.80;0.80;;;;;;;26.36;60.48;99799.03;5070513;28;20203;-67
2023/09/27 09:25:16;;;;;;;0.83;0.80;;;;;;;26.36;59.06;99797.25;5068883;28;20691;-68
2023/09/27 09:27:43;;;;;;;1.57;1.13;;;;;;;26.38;58.21;99799.72;5068841;28;20682;-67
2023/09/27 09:30:11;;;;;;;1.30;1.20;;;;;;;26.41;58.18;99789.75;5069814;28;20290;-68
2023/09/27 09:32:49;;;;;;;1.43;0.90;;;;;;;26.42;58.81;99801.13;5070301;28;20208;-68
2023/09/27 09:35:30;;;;;;;0.77;0.77;;;;;;;26.43;57.86;99787.81;5068217;28;20318;-67
2023/09/27 09:37:59;;;;;;;2.60;1.10;;;;;;;26.43;58.05;99787.00;5067648;28;20655;-67
2023/09/27 09:40:26;;;;;;;1.10;1.10;;;;;;;26.32;56.90;99795.00;5069336;28;20212;-67
2023/09/27 09:42:52;;;;;;;1.10;1.00;;;;;;;26.22;57.78;99794.16;5070156;28;20200;-67
2023/09/27 09:45:20;;;;;;;1.13;1.03;;;;;;;26.21;58.35;99792.50;5070277;28;20565;-67
2023/09/27 09:47:47;;;;;;;1.30;1.30;;;;;;;26.26;57.78;99790.31;5070051;28;20682;-67
2023/09/27 09:50:17;;;;;;;1.63;1.00;;;;;;;26.34;57.29;99787.81;5069120;28;20253;-67
2023/09/27 09:52:53;;;;;;;1.00;1.00;;;;;;;26.39;55.77;99777.72;5069818;28;20208;-67
2023/09/27 09:55:23;;;;;;;0.87;0.87;;;;;;;26.46;56.36;99782.28;5069612;28;20199;-67
2023/09/27 09:57:56;;;;;;;1.30;1.13;;;;;;;26.56;56.84;99782.28;5066928;28;20208;-67
2023/09/27 10:00:27;;;;;;;0.93;0.93;;;;;;;26.60;57.17;99781.03;5069357;28;20206;-67
2023/09/27 10:03:00;;;;;;;1.30;1.20;;;;;;;26.69;56.64;99772.31;5069615;28;20203;-67
2023/09/27 10:05:33;;;;;;;0.93;0.93;;;;;;;26.79;55.23;99767.03;5069835;28;20254;-67
2023/09/27 10:08:00;;;;;;;1.70;0.80;;;;;;;26.91;55.94;99766.81;5074247;28;20235;-67
2023/09/27 10:10:28;;;;;;;1.23;1.13;;;;;;;26.77;54.08;99748.78;5086793;28;20207;-67
2023/09/27 10:12:57;;;;;;;3.67;1.37;;;;;;;27.03;55.78;99770.94;5085535;28;20202;-67
2023/09/27 10:15:24;;;;;;;0.80;0.80;;;;;;;27.06;53.94;99765.38;5085461;28;20200;-67
2023/09/27 10:17:52;;;;;;;2.60;1.10;;;;;;;27.26;55.59;99760.06;5086310;28;20467;-67
2023/09/27 10:20:22;;;;;;;1.90;0.90;;;;;;;27.48;54.71;99760.56;5083042;28;20203;-67
2023/09/27 10:22:52;;;;;;;0.73;0.73;;;;;;;27.64;55.14;99754.69;5086925;28;20760;-67
2023/09/27 10:25:38;;;;;;;1.07;1.07;;;;;;;27.75;56.57;99751.88;5082259;28;20211;-67
2023/09/27 10:28:04;;;;;;;0.80;0.80;;;;;;;27.75;51.95;99751.88;5088359;28;20210;-67
2023/09/27 10:31:06;;;;;;;0.67;0.67;;;;;;;27.71;51.61;99750.50;5083444;28;20199;-68
2023/09/27 10:33:33;;;;;;;0.87;0.87;;;;;;;27.42;52.69;99733.97;5082278;28;20289;-68
2023/09/27 10:36:27;;;;;;;4.73;0.63;;;;;;;27.30;51.82;99732.50;5083961;28;20208;-68
2023/09/27 10:39:03;;;;;;;1.40;1.30;;;;;;;27.32;53.25;99725.25;5085033;28;20199;-67
2023/09/27 10:41:48;;;;;;;0.77;0.77;;;;;;;27.37;53.40;99723.00;5088653;28;20260;-67
2023/09/27 10:44:28;;;;;;;0.80;0.80;;;;;;;27.49;53.76;99722.75;5087240;28;20212;-67
2023/09/27 10:46:55;;;;;;;0.73;0.73;;;;;;;27.59;52.85;99725.31;5089586;28;20199;-67
2023/09/27 10:49:22;;;;;;;2.57;1.00;;;;;;;27.71;53.40;99718.88;5089543;28;20655;-67
2023/09/27 10:51:50;;;;;;;0.90;0.90;;;;;;;27.80;51.73;99711.88;5088645;28;20706;-67
2023/09/27 10:54:21;;;;;;;0.90;0.90;;;;;;;27.89;51.29;99716.25;5085555;28;20282;-67
2023/09/27 10:56:52;;;;;;;0.70;0.70;;;;;;;27.96;51.81;99712.88;5088846;28;20264;-67
2023/09/27 10:59:29;;;;;;;1.93;1.20;;;;;;;28.06;52.44;99697.03;5087773;28;20214;-67
2023/09/27 11:01:58;;;;;;;1.47;0.90;;;;;;;28.08;54.15;99695.91;5091823;28;20209;-67
2023/09/27 11:04:26;;;;;;;0.93;0.93;;;;;;;28.14;51.35;99694.50;5091124;28;20239;-67
2023/09/27 11:06:53;;;;;;;0.90;0.90;;;;;;;28.19;50.70;99699.28;5093608;28;20678;-68
2023/09/27 11:09:20;;;;;;;1.63;1.63;;;;;;;28.20;50.93;99685.13;5091561;28;20270;-67
2023/09/27 11:11:50;;;;;;;0.80;0.80;;;;;;;28.27;50.27;99683.56;5091563;28;20227;-67
2023/09/27 11:14:27;;;;;;;0.93;0.93;;;;;;;28.30;50.36;99681.44;5091196;28;20238;-67
2023/09/27 11:16:54;;;;;;;0.80;0.80;;;;;;;28.32;49.49;99674.19;5092988;28;20200;-67
2023/09/27 11:19:28;;;;;;;1.70;0.97;;;;;;;28.31;50.95;99671.69;5093244;28;20207;-67
2023/09/27 11:21:55;;;;;;;0.88;0.88;;;;;;;28.39;50.13;99677.06;5092355;28;20472;-72
2023/09/27 11:24:22;;;;;;;1.00;1.00;;;;;;;28.63;51.37;99679.88;5089191;28;21014;-66
2023/09/27 11:26:50;;;;;;;0.70;0.70;;;;;;;28.90;48.57;99676.28;5089136;28;20203;-67
2023/09/27 11:29:23;;;;;;;0.90;0.90;;;;;;;28.82;48.73;99655.94;5089673;28;20668;-72
2023/09/27 11:31:57;;;;;;;1.17;1.17;;;;;;;29.07;46.07;99672.75;5090856;28;20199;-69
2023/09/27 11:34:23;;;;;;;0.90;0.90;;;;;;;29.14;45.61;99671.16;5084719;28;20226;-69
2023/09/27 11:36:52;;;;;;;1.95;1.13;;;;;;;29.33;47.43;99667.47;5091925;28;20199;-70